sensor_id;sensor_type;location;lat;lon;timestamp;P1;durP1;ratioP1;P2;durP2;ratioP2
20142;SDS011;10509;46.476;7.134;2023-02-12T00:00:30;2.97;;;2.77;;
20142;SDS011;10509;46.476;7.134;2023-02-12T00:02:56;3.93;;;3.63;;
20142;SDS011;10509;46.476;7.134;2023-02-12T00:05:22;4.17;;;3.70;;
20142;SDS011;10509;46.476;7.134;2023-02-12T00:07:49;3.80;;;3.50;;
20142;SDS011;10509;46.476;7.134;2023-02-12T00:10:15;4.73;;;3.40;;
20142;SDS011;10509;46.476;7.134;2023-02-12T00:12:41;3.70;;;3.40;;
20142;SDS011;10509;46.476;7.134;2023-02-12T00:15:07;4.97;;;4.07;;
20142;SDS011;10509;46.476;7.134;2023-02-12T00:17:33;4.70;;;4.30;;
20142;SDS011;10509;46.476;7.134;2023-02-12T00:19:59;4.17;;;3.83;;
20142;SDS011;10509;46.476;7.134;2023-02-12T00:22:25;5.03;;;4.53;;
20142;SDS011;10509;46.476;7.134;2023-02-12T00:24:52;5.03;;;4.63;;
20142;SDS011;10509;46.476;7.134;2023-02-12T00:27:18;4.67;;;3.37;;
20142;SDS011;10509;46.476;7.134;2023-02-12T00:29:44;4.17;;;3.77;;
20142;SDS011;10509;46.476;7.134;2023-02-12T00:32:10;4.43;;;4.13;;
20142;SDS011;10509;46.476;7.134;2023-02-12T00:34:38;4.50;;;4.07;;
20142;SDS011;10509;46.476;7.134;2023-02-12T00:37:04;4.63;;;4.23;;
20142;SDS011;10509;46.476;7.134;2023-02-12T00:39:30;4.17;;;3.80;;
20142;SDS011;10509;46.476;7.134;2023-02-12T00:41:56;3.57;;;3.27;;
20142;SDS011;10509;46.476;7.134;2023-02-12T00:44:22;2.97;;;2.60;;
20142;SDS011;10509;46.476;7.134;2023-02-12T00:46:48;3.00;;;2.80;;
20142;SDS011;10509;46.476;7.134;2023-02-12T00:49:14;2.90;;;2.70;;
20142;SDS011;10509;46.476;7.134;2023-02-12T00:51:40;3.40;;;2.40;;
20142;SDS011;10509;46.476;7.134;2023-02-12T00:54:06;3.40;;;2.80;;
20142;SDS011;10509;46.476;7.134;2023-02-12T00:56:32;3.00;;;2.40;;
20142;SDS011;10509;46.476;7.134;2023-02-12T00:58:58;3.70;;;2.60;;
20142;SDS011;10509;46.476;7.134;2023-02-12T01:01:24;3.70;;;2.27;;
20142;SDS011;10509;46.476;7.134;2023-02-12T01:03:50;2.80;;;2.60;;
20142;SDS011;10509;46.476;7.134;2023-02-12T01:06:16;2.43;;;2.23;;
20142;SDS011;10509;46.476;7.134;2023-02-12T01:08:42;3.27;;;2.97;;
20142;SDS011;10509;46.476;7.134;2023-02-12T01:11:11;3.10;;;2.90;;
20142;SDS011;10509;46.476;7.134;2023-02-12T01:13:38;3.47;;;3.17;;
20142;SDS011;10509;46.476;7.134;2023-02-12T01:16:08;3.57;;;3.27;;
20142;SDS011;10509;46.476;7.134;2023-02-12T01:18:36;3.00;;;2.70;;
20142;SDS011;10509;46.476;7.134;2023-02-12T01:21:07;2.60;;;2.37;;
20142;SDS011;10509;46.476;7.134;2023-02-12T01:23:33;2.57;;;2.37;;
20142;SDS011;10509;46.476;7.134;2023-02-12T01:25:59;2.57;;;2.37;;
20142;SDS011;10509;46.476;7.134;2023-02-12T01:28:25;2.57;;;2.37;;
20142;SDS011;10509;46.476;7.134;2023-02-12T01:30:51;2.80;;;2.60;;
20142;SDS011;10509;46.476;7.134;2023-02-12T01:33:17;2.53;;;2.33;;
20142;SDS011;10509;46.476;7.134;2023-02-12T01:35:45;3.03;;;2.70;;
20142;SDS011;10509;46.476;7.134;2023-02-12T01:38:11;3.53;;;3.23;;
20142;SDS011;10509;46.476;7.134;2023-02-12T01:40:37;3.17;;;2.90;;
20142;SDS011;10509;46.476;7.134;2023-02-12T01:43:03;2.17;;;1.97;;
20142;SDS011;10509;46.476;7.134;2023-02-12T01:48:01;2.30;;;1.90;;
20142;SDS011;10509;46.476;7.134;2023-02-12T01:50:27;2.10;;;1.90;;
20142;SDS011;10509;46.476;7.134;2023-02-12T01:52:53;1.30;;;1.20;;
20142;SDS011;10509;46.476;7.134;2023-02-12T01:55:20;1.53;;;1.33;;
20142;SDS011;10509;46.476;7.134;2023-02-12T01:57:46;1.23;;;1.03;;
20142;SDS011;10509;46.476;7.134;2023-02-12T02:00:14;2.07;;;1.40;;
20142;SDS011;10509;46.476;7.134;2023-02-12T02:02:44;1.60;;;1.50;;
20142;SDS011;10509;46.476;7.134;2023-02-12T02:05:11;2.63;;;2.43;;
20142;SDS011;10509;46.476;7.134;2023-02-12T02:07:40;2.13;;;1.93;;
20142;SDS011;10509;46.476;7.134;2023-02-12T02:10:08;1.60;;;1.50;;
20142;SDS011;10509;46.476;7.134;2023-02-12T02:12:34;1.40;;;1.30;;
20142;SDS011;10509;46.476;7.134;2023-02-12T02:15:19;1.70;;;1.60;;
20142;SDS011;10509;46.476;7.134;2023-02-12T02:30:51;2.07;;;1.60;;
20142;SDS011;10509;46.476;7.134;2023-02-12T02:33:21;1.67;;;1.40;;
20142;SDS011;10509;46.476;7.134;2023-02-12T02:43:27;1.50;;;1.40;;
20142;SDS011;10509;46.476;7.134;2023-02-12T02:45:55;1.60;;;1.30;;
20142;SDS011;10509;46.476;7.134;2023-02-12T02:48:26;1.60;;;1.40;;
20142;SDS011;10509;46.476;7.134;2023-02-12T02:50:58;1.40;;;1.30;;
20142;SDS011;10509;46.476;7.134;2023-02-12T02:53:30;1.80;;;1.40;;
20142;SDS011;10509;46.476;7.134;2023-02-12T02:55:58;1.60;;;1.10;;
20142;SDS011;10509;46.476;7.134;2023-02-12T02:58:33;1.67;;;1.20;;
20142;SDS011;10509;46.476;7.134;2023-02-12T03:01:13;2.30;;;1.50;;
20142;SDS011;10509;46.476;7.134;2023-02-12T03:08:54;1.23;;;1.13;;
20142;SDS011;10509;46.476;7.134;2023-02-12T03:11:25;1.30;;;1.20;;
20142;SDS011;10509;46.476;7.134;2023-02-12T03:13:56;1.70;;;1.00;;
20142;SDS011;10509;46.476;7.134;2023-02-12T03:16:34;1.23;;;1.10;;
20142;SDS011;10509;46.476;7.134;2023-02-12T03:19:05;1.30;;;1.20;;
20142;SDS011;10509;46.476;7.134;2023-02-12T03:21:38;1.03;;;0.90;;
20142;SDS011;10509;46.476;7.134;2023-02-12T03:24:10;1.00;;;0.90;;
20142;SDS011;10509;46.476;7.134;2023-02-12T03:26:46;1.27;;;1.13;;
20142;SDS011;10509;46.476;7.134;2023-02-12T03:29:13;1.73;;;1.37;;
20142;SDS011;10509;46.476;7.134;2023-02-12T03:32:03;2.53;;;1.50;;
20142;SDS011;10509;46.476;7.134;2023-02-12T03:34:29;2.00;;;1.43;;
20142;SDS011;10509;46.476;7.134;2023-02-12T03:37:01;2.37;;;1.57;;
20142;SDS011;10509;46.476;7.134;2023-02-12T03:39:29;1.80;;;1.67;;
20142;SDS011;10509;46.476;7.134;2023-02-12T03:42:12;1.33;;;1.23;;
20142;SDS011;10509;46.476;7.134;2023-02-12T03:44:52;1.57;;;1.27;;
20142;SDS011;10509;46.476;7.134;2023-02-12T03:47:24;1.50;;;1.20;;
20142;SDS011;10509;46.476;7.134;2023-02-12T03:49:54;2.10;;;1.77;;
20142;SDS011;10509;46.476;7.134;2023-02-12T03:52:24;1.30;;;1.20;;
20142;SDS011;10509;46.476;7.134;2023-02-12T03:54:50;1.50;;;1.40;;
20142;SDS011;10509;46.476;7.134;2023-02-12T03:57:18;2.70;;;1.30;;
20142;SDS011;10509;46.476;7.134;2023-02-12T03:59:44;1.73;;;1.60;;
20142;SDS011;10509;46.476;7.134;2023-02-12T04:02:11;2.37;;;1.73;;
20142;SDS011;10509;46.476;7.134;2023-02-12T04:04:37;1.50;;;1.40;;
20142;SDS011;10509;46.476;7.134;2023-02-12T04:07:03;2.27;;;1.30;;
20142;SDS011;10509;46.476;7.134;2023-02-12T04:09:30;1.20;;;1.10;;
20142;SDS011;10509;46.476;7.134;2023-02-12T04:14:28;1.30;;;1.10;;
20142;SDS011;10509;46.476;7.134;2023-02-12T04:17:02;1.03;;;0.90;;
20142;SDS011;10509;46.476;7.134;2023-02-12T04:19:34;1.47;;;1.10;;
20142;SDS011;10509;46.476;7.134;2023-02-12T04:24:45;1.13;;;0.97;;
20142;SDS011;10509;46.476;7.134;2023-02-12T04:27:20;1.40;;;1.30;;
20142;SDS011;10509;46.476;7.134;2023-02-12T04:32:17;1.00;;;0.90;;
20142;SDS011;10509;46.476;7.134;2023-02-12T04:40:06;1.00;;;0.90;;
20142;SDS011;10509;46.476;7.134;2023-02-12T04:42:43;3.40;;;1.10;;
20142;SDS011;10509;46.476;7.134;2023-02-12T04:45:09;1.00;;;0.80;;
20142;SDS011;10509;46.476;7.134;2023-02-12T04:47:36;0.97;;;0.83;;
20142;SDS011;10509;46.476;7.134;2023-02-12T04:50:02;1.20;;;0.80;;
20142;SDS011;10509;46.476;7.134;2023-02-12T04:52:28;1.87;;;1.20;;
20142;SDS011;10509;46.476;7.134;2023-02-12T04:54:54;0.80;;;0.80;;
20142;SDS011;10509;46.476;7.134;2023-02-12T04:57:20;2.03;;;0.90;;
20142;SDS011;10509;46.476;7.134;2023-02-12T04:59:46;1.03;;;0.90;;
20142;SDS011;10509;46.476;7.134;2023-02-12T05:02:12;1.53;;;0.93;;
20142;SDS011;10509;46.476;7.134;2023-02-12T05:04:38;3.77;;;0.90;;
20142;SDS011;10509;46.476;7.134;2023-02-12T05:07:04;1.13;;;0.80;;
20142;SDS011;10509;46.476;7.134;2023-02-12T05:09:30;2.03;;;0.80;;
20142;SDS011;10509;46.476;7.134;2023-02-12T05:11:56;1.63;;;0.80;;
20142;SDS011;10509;46.476;7.134;2023-02-12T05:14:25;1.03;;;0.80;;
20142;SDS011;10509;46.476;7.134;2023-02-12T05:16:51;1.20;;;0.80;;
20142;SDS011;10509;46.476;7.134;2023-02-12T05:19:17;0.67;;;0.63;;
20142;SDS011;10509;46.476;7.134;2023-02-12T05:21:43;1.63;;;0.70;;
20142;SDS011;10509;46.476;7.134;2023-02-12T05:24:09;1.43;;;0.90;;
20142;SDS011;10509;46.476;7.134;2023-02-12T05:26:35;0.70;;;0.70;;
20142;SDS011;10509;46.476;7.134;2023-02-12T05:29:01;0.70;;;0.70;;
20142;SDS011;10509;46.476;7.134;2023-02-12T05:31:28;0.87;;;0.70;;
20142;SDS011;10509;46.476;7.134;2023-02-12T05:33:54;0.97;;;0.80;;
20142;SDS011;10509;46.476;7.134;2023-02-12T05:36:20;2.10;;;0.80;;
20142;SDS011;10509;46.476;7.134;2023-02-12T05:38:47;1.13;;;0.80;;
20142;SDS011;10509;46.476;7.134;2023-02-12T05:41:17;2.20;;;0.80;;
20142;SDS011;10509;46.476;7.134;2023-02-12T05:43:43;2.20;;;1.00;;
20142;SDS011;10509;46.476;7.134;2023-02-12T05:46:09;1.90;;;1.70;;
20142;SDS011;10509;46.476;7.134;2023-02-12T05:48:36;1.53;;;1.20;;
20142;SDS011;10509;46.476;7.134;2023-02-12T05:51:06;1.27;;;0.90;;
20142;SDS011;10509;46.476;7.134;2023-02-12T05:53:32;2.20;;;2.00;;
20142;SDS011;10509;46.476;7.134;2023-02-12T05:56:12;2.60;;;1.37;;
20142;SDS011;10509;46.476;7.134;2023-02-12T05:58:39;1.47;;;1.10;;
20142;SDS011;10509;46.476;7.134;2023-02-12T06:01:16;4.83;;;1.13;;
20142;SDS011;10509;46.476;7.134;2023-02-12T06:03:42;1.10;;;1.00;;
20142;SDS011;10509;46.476;7.134;2023-02-12T06:06:09;1.57;;;0.90;;
20142;SDS011;10509;46.476;7.134;2023-02-12T06:08:35;2.43;;;1.00;;
20142;SDS011;10509;46.476;7.134;2023-02-12T06:11:02;2.23;;;1.10;;
20142;SDS011;10509;46.476;7.134;2023-02-12T06:13:28;2.93;;;2.40;;
20142;SDS011;10509;46.476;7.134;2023-02-12T06:15:55;2.00;;;1.80;;
20142;SDS011;10509;46.476;7.134;2023-02-12T06:18:21;2.20;;;1.20;;
20142;SDS011;10509;46.476;7.134;2023-02-12T06:20:47;1.30;;;1.00;;
20142;SDS011;10509;46.476;7.134;2023-02-12T06:23:13;2.03;;;1.07;;
20142;SDS011;10509;46.476;7.134;2023-02-12T06:25:40;2.40;;;1.37;;
20142;SDS011;10509;46.476;7.134;2023-02-12T06:28:06;1.87;;;1.10;;
20142;SDS011;10509;46.476;7.134;2023-02-12T06:30:35;1.10;;;1.00;;
20142;SDS011;10509;46.476;7.134;2023-02-12T06:33:01;1.13;;;1.00;;
20142;SDS011;10509;46.476;7.134;2023-02-12T06:35:27;1.20;;;0.93;;
20142;SDS011;10509;46.476;7.134;2023-02-12T06:37:53;1.00;;;0.90;;
20142;SDS011;10509;46.476;7.134;2023-02-12T06:40:19;1.80;;;0.97;;
20142;SDS011;10509;46.476;7.134;2023-02-12T06:42:46;1.00;;;0.90;;
20142;SDS011;10509;46.476;7.134;2023-02-12T06:45:12;1.00;;;0.80;;
20142;SDS011;10509;46.476;7.134;2023-02-12T06:47:38;1.03;;;0.80;;
20142;SDS011;10509;46.476;7.134;2023-02-12T06:50:04;1.93;;;1.10;;
20142;SDS011;10509;46.476;7.134;2023-02-12T06:52:30;1.70;;;1.60;;
20142;SDS011;10509;46.476;7.134;2023-02-12T06:54:56;2.40;;;2.20;;
20142;SDS011;10509;46.476;7.134;2023-02-12T06:57:22;2.70;;;2.50;;
20142;SDS011;10509;46.476;7.134;2023-02-12T06:59:48;3.00;;;2.80;;
20142;SDS011;10509;46.476;7.134;2023-02-12T07:02:14;2.20;;;2.00;;
20142;SDS011;10509;46.476;7.134;2023-02-12T07:04:40;3.67;;;3.07;;
20142;SDS011;10509;46.476;7.134;2023-02-12T07:07:06;3.83;;;3.53;;
20142;SDS011;10509;46.476;7.134;2023-02-12T07:09:32;4.47;;;4.17;;
20142;SDS011;10509;46.476;7.134;2023-02-12T07:11:58;4.53;;;4.20;;
20142;SDS011;10509;46.476;7.134;2023-02-12T07:14:24;3.80;;;3.50;;
20142;SDS011;10509;46.476;7.134;2023-02-12T07:16:52;5.30;;;4.90;;
20142;SDS011;10509;46.476;7.134;2023-02-12T07:19:18;6.03;;;5.53;;
20142;SDS011;10509;46.476;7.134;2023-02-12T07:21:44;13.60;;;12.70;;
20142;SDS011;10509;46.476;7.134;2023-02-12T07:24:11;12.50;;;11.60;;
20142;SDS011;10509;46.476;7.134;2023-02-12T07:26:37;10.10;;;9.40;;
20142;SDS011;10509;46.476;7.134;2023-02-12T07:29:03;10.03;;;9.10;;
20142;SDS011;10509;46.476;7.134;2023-02-12T07:31:29;6.70;;;6.30;;
20142;SDS011;10509;46.476;7.134;2023-02-12T07:33:56;5.40;;;5.00;;
20142;SDS011;10509;46.476;7.134;2023-02-12T07:36:23;3.00;;;2.80;;
20142;SDS011;10509;46.476;7.134;2023-02-12T07:38:49;2.27;;;1.53;;
20142;SDS011;10509;46.476;7.134;2023-02-12T07:41:19;2.00;;;1.90;;
20142;SDS011;10509;46.476;7.134;2023-02-12T07:43:46;1.87;;;1.53;;
20142;SDS011;10509;46.476;7.134;2023-02-12T07:48:40;7.23;;;2.20;;
20142;SDS011;10509;46.476;7.134;2023-02-12T07:51:07;2.33;;;2.13;;
20142;SDS011;10509;46.476;7.134;2023-02-12T07:53:33;3.40;;;3.10;;
20142;SDS011;10509;46.476;7.134;2023-02-12T07:56:09;5.30;;;4.87;;
20142;SDS011;10509;46.476;7.134;2023-02-12T07:58:36;6.27;;;5.70;;
20142;SDS011;10509;46.476;7.134;2023-02-12T08:01:22;7.33;;;6.80;;
20142;SDS011;10509;46.476;7.134;2023-02-12T08:03:49;8.17;;;7.10;;
20142;SDS011;10509;46.476;7.134;2023-02-12T08:06:22;4.00;;;3.70;;
20142;SDS011;10509;46.476;7.134;2023-02-12T08:08:49;4.07;;;3.70;;
20142;SDS011;10509;46.476;7.134;2023-02-12T08:11:16;2.53;;;2.23;;
20142;SDS011;10509;46.476;7.134;2023-02-12T08:13:42;1.70;;;1.57;;
20142;SDS011;10509;46.476;7.134;2023-02-12T08:16:13;1.40;;;1.30;;
20142;SDS011;10509;46.476;7.134;2023-02-12T08:18:39;2.10;;;1.90;;
20142;SDS011;10509;46.476;7.134;2023-02-12T08:21:06;1.70;;;1.57;;
20142;SDS011;10509;46.476;7.134;2023-02-12T08:23:33;1.97;;;1.30;;
20142;SDS011;10509;46.476;7.134;2023-02-12T08:28:31;1.40;;;1.10;;
20142;SDS011;10509;46.476;7.134;2023-02-12T08:31:01;1.40;;;1.10;;
20142;SDS011;10509;46.476;7.134;2023-02-12T08:33:27;1.60;;;1.20;;
20142;SDS011;10509;46.476;7.134;2023-02-12T08:36:15;1.77;;;1.13;;
20142;SDS011;10509;46.476;7.134;2023-02-12T08:38:40;1.43;;;0.90;;
20142;SDS011;10509;46.476;7.134;2023-02-12T08:41:08;1.20;;;1.00;;
20142;SDS011;10509;46.476;7.134;2023-02-12T08:43:34;1.20;;;1.10;;
20142;SDS011;10509;46.476;7.134;2023-02-12T08:46:04;1.70;;;1.40;;
20142;SDS011;10509;46.476;7.134;2023-02-12T08:48:30;2.23;;;1.70;;
20142;SDS011;10509;46.476;7.134;2023-02-12T08:51:02;1.80;;;1.70;;
20142;SDS011;10509;46.476;7.134;2023-02-12T08:53:28;1.90;;;1.50;;
20142;SDS011;10509;46.476;7.134;2023-02-12T08:55:54;2.13;;;1.10;;
20142;SDS011;10509;46.476;7.134;2023-02-12T08:58:20;1.10;;;0.90;;
20142;SDS011;10509;46.476;7.134;2023-02-12T09:00:46;1.10;;;0.90;;
20142;SDS011;10509;46.476;7.134;2023-02-12T09:03:12;1.30;;;1.10;;
20142;SDS011;10509;46.476;7.134;2023-02-12T09:05:41;1.40;;;1.10;;
20142;SDS011;10509;46.476;7.134;2023-02-12T09:08:07;3.00;;;0.90;;
20142;SDS011;10509;46.476;7.134;2023-02-12T09:10:34;1.83;;;1.30;;
20142;SDS011;10509;46.476;7.134;2023-02-12T09:13:03;1.30;;;1.00;;
20142;SDS011;10509;46.476;7.134;2023-02-12T09:15:30;1.50;;;0.90;;
20142;SDS011;10509;46.476;7.134;2023-02-12T09:17:56;1.60;;;1.10;;
20142;SDS011;10509;46.476;7.134;2023-02-12T09:20:22;4.50;;;1.30;;
20142;SDS011;10509;46.476;7.134;2023-02-12T09:22:48;2.03;;;1.10;;
20142;SDS011;10509;46.476;7.134;2023-02-12T09:25:15;1.40;;;1.00;;
20142;SDS011;10509;46.476;7.134;2023-02-12T09:27:41;2.67;;;1.00;;
20142;SDS011;10509;46.476;7.134;2023-02-12T09:30:07;1.30;;;0.90;;
20142;SDS011;10509;46.476;7.134;2023-02-12T09:32:33;1.80;;;1.00;;
20142;SDS011;10509;46.476;7.134;2023-02-12T09:34:59;1.85;;;1.00;;
20142;SDS011;10509;46.476;7.134;2023-02-12T09:37:25;4.63;;;1.40;;
20142;SDS011;10509;46.476;7.134;2023-02-12T09:39:51;2.00;;;1.20;;
20142;SDS011;10509;46.476;7.134;2023-02-12T09:42:24;4.88;;;1.60;;
20142;SDS011;10509;46.476;7.134;2023-02-12T09:52:21;4.18;;;1.73;;
20142;SDS011;10509;46.476;7.134;2023-02-12T09:54:49;6.07;;;2.33;;
20142;SDS011;10509;46.476;7.134;2023-02-12T09:57:19;3.92;;;1.58;;
20142;SDS011;10509;46.476;7.134;2023-02-12T09:59:51;2.15;;;1.90;;
20142;SDS011;10509;46.476;7.134;2023-02-12T10:02:19;4.45;;;1.75;;
20142;SDS011;10509;46.476;7.134;2023-02-12T10:04:46;3.80;;;1.67;;
20142;SDS011;10509;46.476;7.134;2023-02-12T10:07:26;4.80;;;1.50;;
20142;SDS011;10509;46.476;7.134;2023-02-12T10:12:39;3.58;;;1.40;;
20142;SDS011;10509;46.476;7.134;2023-02-12T10:17:49;3.30;;;1.13;;
20142;SDS011;10509;46.476;7.134;2023-02-12T10:25:58;2.45;;;1.20;;
20142;SDS011;10509;46.476;7.134;2023-02-12T10:28:27;4.18;;;1.15;;
20142;SDS011;10509;46.476;7.134;2023-02-12T10:30:56;3.70;;;1.00;;
20142;SDS011;10509;46.476;7.134;2023-02-12T10:33:29;1.77;;;1.05;;
20142;SDS011;10509;46.476;7.134;2023-02-12T10:39:00;2.00;;;0.95;;
20142;SDS011;10509;46.476;7.134;2023-02-12T10:41:27;4.80;;;1.10;;
20142;SDS011;10509;46.476;7.134;2023-02-12T10:43:55;3.72;;;1.30;;
20142;SDS011;10509;46.476;7.134;2023-02-12T10:46:21;1.92;;;1.08;;
20142;SDS011;10509;46.476;7.134;2023-02-12T10:48:48;10.73;;;1.73;;
20142;SDS011;10509;46.476;7.134;2023-02-12T10:51:19;5.03;;;1.00;;
20142;SDS011;10509;46.476;7.134;2023-02-12T10:53:50;3.65;;;1.40;;
20142;SDS011;10509;46.476;7.134;2023-02-12T10:58:49;1.10;;;0.70;;
20142;SDS011;10509;46.476;7.134;2023-02-12T11:01:18;1.08;;;0.70;;
20142;SDS011;10509;46.476;7.134;2023-02-12T11:03:46;2.65;;;1.10;;
20142;SDS011;10509;46.476;7.134;2023-02-12T11:06:13;0.90;;;0.60;;
20142;SDS011;10509;46.476;7.134;2023-02-12T11:08:40;3.13;;;1.10;;
20142;SDS011;10509;46.476;7.134;2023-02-12T11:11:08;0.80;;;0.80;;
20142;SDS011;10509;46.476;7.134;2023-02-12T11:13:35;3.03;;;1.90;;
20142;SDS011;10509;46.476;7.134;2023-02-12T11:16:01;1.93;;;1.17;;
20142;SDS011;10509;46.476;7.134;2023-02-12T11:18:29;2.23;;;0.87;;
20142;SDS011;10509;46.476;7.134;2023-02-12T11:28:21;2.33;;;0.90;;
20142;SDS011;10509;46.476;7.134;2023-02-12T11:30:48;2.97;;;1.10;;
20142;SDS011;10509;46.476;7.134;2023-02-12T11:33:23;4.63;;;1.13;;
20142;SDS011;10509;46.476;7.134;2023-02-12T11:35:56;1.90;;;1.07;;
20142;SDS011;10509;46.476;7.134;2023-02-12T11:38:25;6.30;;;1.13;;
20142;SDS011;10509;46.476;7.134;2023-02-12T11:43:40;1.97;;;1.13;;
20142;SDS011;10509;46.476;7.134;2023-02-12T11:46:06;4.90;;;2.20;;
20142;SDS011;10509;46.476;7.134;2023-02-12T11:48:37;4.60;;;1.10;;
20142;SDS011;10509;46.476;7.134;2023-02-12T11:51:06;3.33;;;1.10;;
20142;SDS011;10509;46.476;7.134;2023-02-12T11:53:37;3.03;;;1.20;;
20142;SDS011;10509;46.476;7.134;2023-02-12T11:56:11;4.00;;;0.90;;
20142;SDS011;10509;46.476;7.134;2023-02-12T11:58:38;4.17;;;1.00;;
20142;SDS011;10509;46.476;7.134;2023-02-12T12:06:01;2.37;;;1.10;;
20142;SDS011;10509;46.476;7.134;2023-02-12T12:11:06;3.57;;;1.10;;
20142;SDS011;10509;46.476;7.134;2023-02-12T12:13:53;1.40;;;0.93;;
20142;SDS011;10509;46.476;7.134;2023-02-12T12:16:30;4.93;;;1.50;;
20142;SDS011;10509;46.476;7.134;2023-02-12T12:19:23;2.10;;;0.67;;
20142;SDS011;10509;46.476;7.134;2023-02-12T12:27:14;2.80;;;0.80;;
20142;SDS011;10509;46.476;7.134;2023-02-12T12:30:04;3.13;;;0.90;;
20142;SDS011;10509;46.476;7.134;2023-02-12T12:32:33;4.20;;;1.00;;
20142;SDS011;10509;46.476;7.134;2023-02-12T12:35:01;4.50;;;1.70;;
20142;SDS011;10509;46.476;7.134;2023-02-12T12:42:45;3.77;;;0.87;;
20142;SDS011;10509;46.476;7.134;2023-02-12T13:06:14;6.83;;;1.20;;
20142;SDS011;10509;46.476;7.134;2023-02-12T13:11:33;1.57;;;1.10;;
20142;SDS011;10509;46.476;7.134;2023-02-12T13:16:56;5.90;;;2.50;;
20142;SDS011;10509;46.476;7.134;2023-02-12T13:24:46;4.70;;;2.00;;
20142;SDS011;10509;46.476;7.134;2023-02-12T13:27:19;3.57;;;2.07;;
20142;SDS011;10509;46.476;7.134;2023-02-12T13:29:47;4.27;;;2.00;;
20142;SDS011;10509;46.476;7.134;2023-02-12T13:32:24;2.30;;;2.03;;
20142;SDS011;10509;46.476;7.134;2023-02-12T13:34:52;3.60;;;2.03;;
20142;SDS011;10509;46.476;7.134;2023-02-12T13:37:32;2.93;;;2.27;;
20142;SDS011;10509;46.476;7.134;2023-02-12T13:40:00;2.63;;;2.17;;
20142;SDS011;10509;46.476;7.134;2023-02-12T13:53:01;4.97;;;2.90;;
20142;SDS011;10509;46.476;7.134;2023-02-12T14:01:04;6.53;;;3.30;;
20142;SDS011;10509;46.476;7.134;2023-02-12T14:03:34;4.27;;;3.87;;
20142;SDS011;10509;46.476;7.134;2023-02-12T14:06:11;7.33;;;3.70;;
20142;SDS011;10509;46.476;7.134;2023-02-12T14:08:39;4.60;;;3.80;;
20142;SDS011;10509;46.476;7.134;2023-02-12T14:11:16;4.87;;;4.50;;
20142;SDS011;10509;46.476;7.134;2023-02-12T14:13:53;7.33;;;4.60;;
20142;SDS011;10509;46.476;7.134;2023-02-12T14:21:39;4.80;;;4.07;;
20142;SDS011;10509;46.476;7.134;2023-02-12T14:26:50;4.47;;;4.03;;
20142;SDS011;10509;46.476;7.134;2023-02-12T14:29:18;10.27;;;4.50;;
20142;SDS011;10509;46.476;7.134;2023-02-12T14:31:48;13.93;;;5.57;;
20142;SDS011;10509;46.476;7.134;2023-02-12T14:36:42;5.70;;;4.90;;
20142;SDS011;10509;46.476;7.134;2023-02-12T14:41:44;4.67;;;4.30;;
20142;SDS011;10509;46.476;7.134;2023-02-12T14:49:24;5.47;;;5.07;;
20142;SDS011;10509;46.476;7.134;2023-02-12T14:51:53;7.20;;;5.00;;
20142;SDS011;10509;46.476;7.134;2023-02-12T14:57:05;9.47;;;5.80;;
20142;SDS011;10509;46.476;7.134;2023-02-12T14:59:33;6.97;;;6.00;;
20142;SDS011;10509;46.476;7.134;2023-02-12T15:02:02;6.23;;;5.77;;
20142;SDS011;10509;46.476;7.134;2023-02-12T15:04:30;6.77;;;6.23;;
20142;SDS011;10509;46.476;7.134;2023-02-12T15:07:03;7.07;;;6.43;;
20142;SDS011;10509;46.476;7.134;2023-02-12T15:09:38;6.67;;;6.10;;
20142;SDS011;10509;46.476;7.134;2023-02-12T15:12:11;6.93;;;6.23;;
20142;SDS011;10509;46.476;7.134;2023-02-12T15:14:42;8.77;;;6.80;;
20142;SDS011;10509;46.476;7.134;2023-02-12T15:17:19;9.30;;;7.73;;
20142;SDS011;10509;46.476;7.134;2023-02-12T15:22:23;8.10;;;7.40;;
20142;SDS011;10509;46.476;7.134;2023-02-12T15:24:50;8.03;;;7.43;;
20142;SDS011;10509;46.476;7.134;2023-02-12T15:27:17;8.17;;;7.47;;
20142;SDS011;10509;46.476;7.134;2023-02-12T15:29:45;9.40;;;8.23;;
20142;SDS011;10509;46.476;7.134;2023-02-12T15:32:21;9.70;;;8.80;;
20142;SDS011;10509;46.476;7.134;2023-02-12T15:34:48;10.77;;;9.97;;
20142;SDS011;10509;46.476;7.134;2023-02-12T15:37:17;11.37;;;10.30;;
20142;SDS011;10509;46.476;7.134;2023-02-12T15:39:45;10.00;;;9.30;;
20142;SDS011;10509;46.476;7.134;2023-02-12T15:47:40;11.17;;;10.17;;
20142;SDS011;10509;46.476;7.134;2023-02-12T15:50:06;11.70;;;10.67;;
20142;SDS011;10509;46.476;7.134;2023-02-12T15:52:33;11.90;;;10.27;;
20142;SDS011;10509;46.476;7.134;2023-02-12T15:55:01;16.80;;;11.40;;
20142;SDS011;10509;46.476;7.134;2023-02-12T15:57:29;12.50;;;11.20;;
20142;SDS011;10509;46.476;7.134;2023-02-12T15:59:56;14.33;;;11.27;;
20142;SDS011;10509;46.476;7.134;2023-02-12T16:02:25;12.27;;;11.10;;
20142;SDS011;10509;46.476;7.134;2023-02-12T16:04:52;11.67;;;10.70;;
20142;SDS011;10509;46.476;7.134;2023-02-12T16:07:19;11.90;;;10.63;;
20142;SDS011;10509;46.476;7.134;2023-02-12T16:09:45;12.00;;;10.97;;
20142;SDS011;10509;46.476;7.134;2023-02-12T16:12:12;11.43;;;10.53;;
20142;SDS011;10509;46.476;7.134;2023-02-12T16:14:40;12.87;;;10.70;;
20142;SDS011;10509;46.476;7.134;2023-02-12T16:17:26;14.97;;;11.83;;
20142;SDS011;10509;46.476;7.134;2023-02-12T16:19:57;12.20;;;11.03;;
20142;SDS011;10509;46.476;7.134;2023-02-12T16:22:25;15.23;;;11.57;;
20142;SDS011;10509;46.476;7.134;2023-02-12T16:24:52;16.40;;;11.50;;
20142;SDS011;10509;46.476;7.134;2023-02-12T16:27:21;38.10;;;13.33;;
20142;SDS011;10509;46.476;7.134;2023-02-12T16:29:49;12.63;;;11.43;;
20142;SDS011;10509;46.476;7.134;2023-02-12T16:37:41;16.53;;;14.83;;
20142;SDS011;10509;46.476;7.134;2023-02-12T16:42:37;16.43;;;15.13;;
20142;SDS011;10509;46.476;7.134;2023-02-12T16:45:45;16.53;;;15.23;;
20142;SDS011;10509;46.476;7.134;2023-02-12T16:47:52;21.33;;;15.87;;
20142;SDS011;10509;46.476;7.134;2023-02-12T16:50:19;15.80;;;12.73;;
20142;SDS011;10509;46.476;7.134;2023-02-12T16:52:47;12.87;;;11.77;;
20142;SDS011;10509;46.476;7.134;2023-02-12T16:55:14;12.83;;;11.93;;
20142;SDS011;10509;46.476;7.134;2023-02-12T16:57:41;14.83;;;13.43;;
20142;SDS011;10509;46.476;7.134;2023-02-12T17:00:07;24.73;;;14.67;;
20142;SDS011;10509;46.476;7.134;2023-02-12T17:02:34;15.53;;;12.30;;
20142;SDS011;10509;46.476;7.134;2023-02-12T17:05:01;13.20;;;11.80;;
20142;SDS011;10509;46.476;7.134;2023-02-12T17:07:31;16.53;;;11.20;;
20142;SDS011;10509;46.476;7.134;2023-02-12T17:09:57;13.97;;;12.97;;
20142;SDS011;10509;46.476;7.134;2023-02-12T17:12:23;19.83;;;18.10;;
20142;SDS011;10509;46.476;7.134;2023-02-12T17:14:49;26.93;;;24.47;;
20142;SDS011;10509;46.476;7.134;2023-02-12T17:17:15;22.07;;;20.33;;
20142;SDS011;10509;46.476;7.134;2023-02-12T17:19:41;21.23;;;19.40;;
20142;SDS011;10509;46.476;7.134;2023-02-12T17:22:07;16.80;;;15.60;;
20142;SDS011;10509;46.476;7.134;2023-02-12T17:24:40;14.87;;;13.80;;
20142;SDS011;10509;46.476;7.134;2023-02-12T17:27:07;14.93;;;13.60;;
20142;SDS011;10509;46.476;7.134;2023-02-12T17:29:35;15.17;;;14.03;;
20142;SDS011;10509;46.476;7.134;2023-02-12T17:32:01;13.20;;;12.00;;
20142;SDS011;10509;46.476;7.134;2023-02-12T17:34:27;10.57;;;9.57;;
20142;SDS011;10509;46.476;7.134;2023-02-12T17:36:53;11.23;;;10.43;;
20142;SDS011;10509;46.476;7.134;2023-02-12T17:39:20;13.07;;;12.17;;
20142;SDS011;10509;46.476;7.134;2023-02-12T17:41:46;10.50;;;9.80;;
20142;SDS011;10509;46.476;7.134;2023-02-12T17:44:12;10.27;;;9.37;;
20142;SDS011;10509;46.476;7.134;2023-02-12T17:46:39;9.37;;;8.67;;
20142;SDS011;10509;46.476;7.134;2023-02-12T17:49:06;9.50;;;8.83;;
20142;SDS011;10509;46.476;7.134;2023-02-12T17:51:32;9.57;;;8.00;;
20142;SDS011;10509;46.476;7.134;2023-02-12T17:53:58;8.80;;;7.93;;